Time;durP1;ratioP1;P1;durP2;ratioP2;P2;SDS_P1;SDS_P2;PMS_P1;PMS_P2;Temp;Humidity;BMP_temperature;BMP_pressure;BME280_temperature;BME280_humidity;BME280_pressure;Samples;Min_cycle;Max_cycle;Signal;HPM_P1;HPM_P2
2021/04/11 00:00:31;;;;;;;8.82;1.52;;;11.50;99.90;;;10.96;84.67;101062.41;5093686;28;20455;-46
2021/04/11 00:02:58;;;;;;;7.93;2.13;;;11.50;99.90;;;10.93;84.35;101054.84;5086084;28;20501;-51
2021/04/11 00:05:31;;;;;;;7.80;1.52;;;11.50;99.90;;;10.91;84.65;101062.00;5071694;28;20032;-48
2021/04/11 00:07:58;;;;;;;6.32;1.33;;;11.50;99.90;;;10.93;84.46;101048.81;5085042;28;20105;-51
2021/04/11 00:10:30;;;;;;;9.57;1.38;;;11.50;99.90;;;10.91;84.58;101048.94;5089592;28;20442;-51
2021/04/11 00:12:57;;;;;;;6.28;1.13;;;11.50;99.90;;;10.92;84.13;101047.16;5078861;28;20036;-51
2021/04/11 00:15:24;;;;;;;9.00;1.45;;;11.50;99.90;;;10.93;83.56;101043.59;5070222;28;20308;-48
2021/04/11 00:17:50;;;;;;;8.98;1.38;;;11.50;99.90;;;10.95;83.35;101037.31;5078683;28;20111;-53
2021/04/11 00:20:17;;;;;;;10.85;1.10;;;11.50;99.90;;;10.99;81.74;101037.88;5089552;28;20089;-49
2021/04/11 00:22:46;;;;;;;5.15;1.17;;;11.50;99.90;;;10.98;81.05;101042.25;5081719;28;20064;-58
2021/04/11 00:25:18;;;;;;;5.55;1.25;;;11.50;99.90;;;11.00;80.47;101028.25;5069656;28;20029;-49
2021/04/11 00:27:44;;;;;;;4.80;0.80;;;11.60;99.90;;;10.98;80.10;101031.81;5082060;28;20055;-48
2021/04/11 00:30:12;;;;;;;9.82;0.77;;;11.50;99.90;;;11.00;79.67;101026.47;5089676;28;20181;-51
2021/04/11 00:32:39;;;;;;;8.25;1.08;;;11.50;99.90;;;11.00;78.99;101025.66;5089376;28;20085;-49
2021/04/11 00:35:07;;;;;;;3.38;0.73;;;11.50;99.90;;;10.98;78.46;101031.00;5089531;28;20659;-50
2021/04/11 00:37:33;;;;;;;7.80;1.63;;;11.50;99.90;;;10.98;78.29;101028.38;5071532;28;20081;-48
2021/04/11 00:39:59;;;;;;;8.13;0.98;;;11.50;99.90;;;10.96;77.84;101028.53;5089522;28;20364;-52
2021/04/11 00:42:41;;;;;;;4.45;0.57;;;11.50;99.90;;;10.94;77.70;101022.63;5089147;28;20086;-48
2021/04/11 00:45:27;;;;;;;5.07;0.50;;;11.50;99.90;;;10.93;77.41;101018.38;5071345;28;20047;-50
2021/04/11 00:47:54;;;;;;;6.25;0.80;;;11.50;99.90;;;10.89;77.54;101010.94;5089626;28;20363;-51
2021/04/11 00:50:22;;;;;;;4.10;1.00;;;11.50;99.90;;;10.87;77.58;101013.69;5089452;28;20387;-51
2021/04/11 00:52:48;;;;;;;8.07;0.85;;;11.40;99.90;;;10.81;77.89;101014.22;5071198;28;20028;-50
2021/04/11 00:55:18;;;;;;;5.90;0.90;;;11.40;99.90;;;10.80;77.85;101006.53;5054230;28;20491;-47
2021/04/11 00:57:45;;;;;;;5.50;1.02;;;11.40;99.90;;;10.79;77.85;101010.94;5054419;28;20036;-50
2021/04/11 01:00:13;;;;;;;6.43;0.75;;;11.40;99.90;;;10.77;78.13;101017.25;5089192;28;20024;-51
2021/04/11 01:02:40;;;;;;;2.33;0.75;;;11.40;99.90;;;10.78;77.66;101017.09;5089138;28;20028;-48
2021/04/11 01:05:16;;;;;;;5.80;0.60;;;11.40;99.90;;;10.79;77.37;101008.31;5088700;28;20028;-48
2021/04/11 01:07:46;;;;;;;6.32;0.60;;;11.40;99.90;;;10.77;77.59;101015.44;5088965;28;20140;-50
2021/04/11 01:10:17;;;;;;;4.65;0.63;;;11.30;99.90;;;10.70;77.91;101011.72;5060261;28;20104;-52
2021/04/11 01:12:44;;;;;;;3.80;0.40;;;11.30;99.90;;;10.62;78.44;101012.38;5047363;28;20057;-49
2021/04/11 01:15:25;;;;;;;1.85;0.57;;;11.20;99.90;;;10.59;79.16;101009.22;5047098;28;20223;-51
2021/04/11 01:17:51;;;;;;;4.57;0.50;;;11.20;99.90;;;10.54;79.30;101003.56;5048514;28;20039;-47
2021/04/11 01:20:20;;;;;;;2.90;0.40;;;11.20;99.90;;;10.53;79.59;100994.91;5046936;28;20033;-50
2021/04/11 01:23:13;;;;;;;3.42;0.60;;;11.10;99.90;;;10.52;79.91;100987.22;5046765;28;20040;-50
2021/04/11 01:25:42;;;;;;;15.68;1.25;;;11.10;99.90;;;10.44;80.22;100990.50;5048322;28;20097;-50
2021/04/11 01:28:16;;;;;;;3.58;0.70;;;11.10;99.90;;;10.37;80.47;100989.38;5048220;28;20039;-52
2021/04/11 01:30:44;;;;;;;4.22;0.65;;;11.00;99.90;;;10.38;80.63;100983.22;5046856;28;20490;-46
2021/04/11 01:33:21;;;;;;;4.75;0.50;;;11.00;99.90;;;10.39;80.42;100989.25;5048213;28;20087;-51
2021/04/11 01:35:51;;;;;;;5.10;0.60;;;10.90;99.90;;;10.38;80.38;100990.22;5047987;28;20116;-49
2021/04/11 01:38:18;;;;;;;2.20;0.40;;;10.90;99.90;;;10.34;81.03;100989.66;5046721;28;20041;-45
2021/04/11 01:41:01;;;;;;;2.67;1.05;;;10.90;99.90;;;10.33;81.19;100985.38;5046705;28;20037;-51
2021/04/11 01:43:28;;;;;;;3.25;0.80;;;10.90;99.90;;;10.30;81.13;100983.88;5048159;28;20043;-49
2021/04/11 01:45:56;;;;;;;3.60;0.30;;;10.90;99.90;;;10.33;81.43;100981.97;5046747;28;20151;-44
2021/04/11 01:48:23;;;;;;;3.42;0.45;;;10.90;99.90;;;10.32;81.23;100988.13;5046576;28;20432;-47
2021/04/11 01:50:50;;;;;;;0.95;0.40;;;10.90;99.90;;;10.30;81.10;100986.47;5046320;28;20098;-50
2021/04/11 01:53:17;;;;;;;6.25;0.60;;;10.90;99.90;;;10.32;81.05;100983.75;5046434;28;20098;-45
2021/04/11 01:55:44;;;;;;;4.47;0.65;;;10.80;99.90;;;10.26;81.12;100977.28;5029897;28;20033;-44
2021/04/11 01:58:12;;;;;;;4.40;0.55;;;10.90;99.90;;;10.23;81.46;100974.94;5047138;28;20409;-47
2021/04/11 02:00:46;;;;;;;5.75;0.82;;;10.80;99.90;;;10.23;81.22;100967.13;5046246;28;20083;-53
2021/04/11 02:03:19;;;;;;;5.15;0.93;;;10.80;99.90;;;10.22;81.46;100975.06;5047720;28;20041;-48
2021/04/11 02:05:48;;;;;;;3.85;0.65;;;10.80;99.90;;;10.21;81.06;100966.41;5047815;28;20043;-49
2021/04/11 02:08:21;;;;;;;4.35;0.60;;;10.80;99.90;;;10.21;81.16;100969.03;5047532;28;20318;-47
2021/04/11 02:10:55;;;;;;;4.97;0.52;;;10.80;99.90;;;10.22;80.81;100968.06;5045884;28;20526;-46
2021/04/11 02:13:32;;;;;;;3.28;0.65;;;10.80;99.90;;;10.25;81.01;100965.22;5046286;28;20068;-47
2021/04/11 02:16:01;;;;;;;4.28;0.90;;;10.80;99.90;;;10.22;80.64;100957.66;5046008;28;20541;-48
2021/04/11 02:18:30;;;;;;;4.93;0.70;;;10.80;99.90;;;10.23;80.78;100958.47;5046243;28;20029;-48
2021/04/11 02:20:59;;;;;;;5.93;0.80;;;10.80;99.90;;;10.21;81.13;100958.59;5047283;28;20033;-45
2021/04/11 02:23:29;;;;;;;2.58;0.57;;;10.80;99.90;;;10.20;81.77;100962.16;5047505;28;20029;-48
2021/04/11 02:25:56;;;;;;;4.93;0.98;;;10.80;99.90;;;10.13;82.31;100960.16;5046145;28;20041;-50
2021/04/11 02:28:30;;;;;;;3.38;0.60;;;10.70;99.90;;;10.09;82.83;100959.59;5046192;28;20029;-49
2021/04/11 02:31:18;;;;;;;2.33;0.80;;;10.70;99.90;;;10.06;82.79;100959.84;5047645;28;20037;-45
2021/04/11 02:34:04;;;;;;;5.13;0.80;;;10.60;99.90;;;10.07;83.12;100955.47;5046040;28;20516;-51
2021/04/11 02:36:47;;;;;;;1.90;0.60;;;10.60;99.90;;;10.10;82.79;100961.25;5047394;28;20151;-50
2021/04/11 02:39:23;;;;;;;3.67;0.60;;;10.60;99.90;;;10.09;83.00;100954.41;5047555;28;20041;-45
2021/04/11 02:41:50;;;;;;;4.53;1.15;;;10.70;99.90;;;10.06;83.26;100953.81;5174652;22;20379;-47
2021/04/11 02:44:17;;;;;;;7.18;1.10;;;10.70;99.90;;;10.12;82.99;100942.91;5087549;28;20118;-48
2021/04/11 02:46:45;;;;;;;2.70;0.70;;;10.70;99.90;;;10.13;83.11;100950.56;5069642;28;20055;-52
2021/04/11 02:49:20;;;;;;;4.60;0.90;;;10.70;99.90;;;10.13;83.26;100942.78;5087732;28;20040;-48
2021/04/11 02:51:47;;;;;;;4.23;0.63;;;10.60;99.90;;;10.07;83.53;100947.66;5069493;28;20078;-47
2021/04/11 02:54:18;;;;;;;2.47;0.60;;;10.60;99.90;;;10.06;83.62;100951.22;5087211;28;20301;-48
2021/04/11 02:56:45;;;;;;;5.30;0.80;;;10.60;99.90;;;10.06;83.65;100940.81;5069499;28;20130;-51
2021/04/11 02:59:15;;;;;;;3.05;1.00;;;10.60;99.90;;;10.03;84.10;100939.28;5087527;28;20103;-49
2021/04/11 03:01:46;;;;;;;4.93;1.33;;;10.60;99.90;;;10.00;83.97;100939.53;5087548;28;20039;-51
2021/04/11 03:04:21;;;;;;;3.78;0.90;;;10.50;99.90;;;9.99;84.21;100948.31;5069406;28;20039;-50
2021/04/11 03:06:59;;;;;;;3.78;1.20;;;10.60;99.90;;;9.96;84.45;100949.38;5087904;28;20035;-46
2021/04/11 03:09:39;;;;;;;7.90;1.10;;;10.60;99.90;;;9.94;84.36;100955.69;5070038;28;20898;-52
2021/04/11 03:12:07;;;;;;;5.13;0.65;;;10.50;99.90;;;9.94;84.12;100956.50;5090577;28;20028;-44
2021/04/11 03:14:37;;;;;;;7.50;0.70;;;10.50;99.90;;;9.96;84.34;100953.78;5073141;28;20040;-46
2021/04/11 03:17:10;;;;;;;3.75;0.93;;;10.50;99.90;;;9.89;84.85;100952.66;5091214;28;20085;-47
2021/04/11 03:20:08;;;;;;;2.35;0.60;;;10.50;99.90;;;9.90;85.71;100959.50;5073417;28;20030;-45
2021/04/11 03:22:36;;;;;;;2.50;1.45;;;10.50;99.90;;;9.88;85.69;100962.25;5091341;28;20901;-49
2021/04/11 03:25:05;;;;;;;3.47;1.13;;;10.40;99.90;;;9.87;86.26;100968.41;5072780;28;20039;-49
2021/04/11 03:28:01;;;;;;;6.47;1.33;;;10.50;99.90;;;9.88;86.86;100961.41;5091102;28;20106;-49
2021/04/11 03:30:40;;;;;;;7.18;1.92;;;10.40;99.90;;;9.82;87.01;100954.94;5090949;28;20028;-49
2021/04/11 03:33:15;;;;;;;8.70;1.08;;;10.40;99.90;;;9.83;86.98;100958.38;5090770;28;20525;-50
2021/04/11 03:35:46;;;;;;;4.15;1.25;;;10.40;99.90;;;9.85;86.91;100956.47;5090890;28;20040;-49
2021/04/11 03:38:15;;;;;;;3.15;0.77;;;10.40;99.90;;;9.86;86.25;100952.91;5090740;28;20032;-48
2021/04/11 03:40:45;;;;;;;2.45;1.10;;;10.40;99.90;;;9.87;85.99;100958.00;5072208;28;20117;-49
2021/04/11 03:43:24;;;;;;;3.65;0.70;;;10.40;99.90;;;9.81;86.21;100961.09;5072368;28;20051;-49
2021/04/11 03:45:54;;;;;;;2.78;0.70;;;10.40;99.90;;;9.81;85.73;100955.91;5072780;28;20036;-49
2021/04/11 03:48:45;;;;;;;8.13;0.98;;;10.40;99.90;;;9.80;85.80;100964.66;5090472;28;20089;-49
2021/04/11 03:51:20;;;;;;;3.22;0.93;;;10.40;99.90;;;9.78;85.67;100971.75;5072117;28;20113;-51
2021/04/11 03:54:00;;;;;;;;;;;10.40;99.90;;;9.76;86.61;100962.44;5056672;28;20037;-48
2021/04/11 03:56:34;;;;;;;4.40;1.33;;;10.40;99.90;;;9.67;86.04;100971.81;5070010;28;20062;-47
2021/04/11 03:59:03;;;;;;;3.17;1.13;;;10.30;99.90;;;9.69;86.07;100972.53;5065881;28;20036;-44
2021/04/11 04:01:38;;;;;;;6.25;2.20;;;10.30;99.90;;;9.65;86.40;100973.72;5052112;28;20028;-48
2021/04/11 04:04:13;;;;;;;4.38;1.20;;;10.20;99.90;;;9.65;86.73;100973.72;5036847;28;20140;-49
2021/04/11 04:06:48;;;;;;;3.38;1.20;;;10.30;99.90;;;9.66;86.74;100977.97;5032787;28;20033;-49
2021/04/11 04:09:14;;;;;;;6.95;1.20;;;10.30;99.90;;;9.60;87.17;100981.91;5046548;28;20067;-49
2021/04/11 04:12:16;;;;;;;6.20;1.27;;;10.20;99.90;;;9.57;87.07;100970.91;5069951;28;20484;-48
2021/04/11 04:14:48;;;;;;;2.53;0.90;;;10.20;99.90;;;9.49;87.04;100971.53;5050031;28;20110;-50
2021/04/11 04:17:38;;;;;;;7.13;1.17;;;10.10;99.90;;;9.45;87.94;100977.16;5068004;28;20135;-48
2021/04/11 04:20:26;;;;;;;5.05;1.30;;;10.10;99.90;;;9.42;87.62;100980.00;5068782;28;20074;-49
2021/04/11 04:23:10;;;;;;;7.18;1.33;;;10.10;99.90;;;9.43;87.50;100973.84;5051892;28;20028;-48
2021/04/11 04:26:07;;;;;;;5.18;1.58;;;10.00;99.90;;;9.43;88.22;100985.06;5050598;28;20086;-48
2021/04/11 04:29:03;;;;;;;6.70;1.75;;;10.00;99.90;;;9.44;88.14;100978.09;5068978;28;20131;-47
2021/04/11 04:31:51;;;;;;;4.25;1.55;;;10.00;99.90;;;9.46;87.98;100987.41;5069617;28;20517;-50
2021/04/11 04:34:48;;;;;;;4.43;1.50;;;10.10;99.90;;;9.43;88.47;100982.47;5068652;28;20040;-47
2021/04/11 04:37:42;;;;;;;;;;;10.00;99.90;;;9.43;89.08;100985.06;5069888;28;20040;-51
2021/04/11 04:40:29;;;;;;;9.07;2.28;;;10.00;99.90;;;9.40;88.31;100995.72;5064581;28;19956;-50
2021/04/11 04:43:06;;;;;;;3.67;1.00;;;10.00;99.90;;;9.46;88.07;100994.38;5053970;28;20079;-52
2021/04/11 04:45:57;;;;;;;3.00;1.58;;;10.00;99.90;;;9.48;88.33;100993.28;5069015;28;20036;-44
2021/04/11 04:48:38;;;;;;;2.85;1.40;;;10.10;99.90;;;9.47;88.18;100994.25;5067503;28;20056;-50
2021/04/11 04:51:51;;;;;;;4.93;1.70;;;10.10;99.90;;;9.45;88.41;101011.75;5068214;28;20033;-52
2021/04/11 04:54:53;;;;;;;4.07;1.00;;;10.00;99.90;;;9.47;87.60;101004.66;5064857;28;20101;-51
2021/04/11 04:57:34;;;;;;;3.35;1.00;;;10.10;99.90;;;9.45;87.20;101001.34;5069081;28;20043;-52
2021/04/11 05:00:36;;;;;;;1.73;1.17;;;10.00;99.90;;;9.47;87.16;101001.22;5063234;28;20499;-49
2021/04/11 05:03:20;;;;;;;4.47;1.15;;;10.10;99.90;;;9.45;87.25;101005.75;5052059;28;20090;-49
2021/04/11 05:06:11;;;;;;;4.60;1.10;;;10.00;99.90;;;9.38;87.62;101002.81;5032615;28;20060;-47
2021/04/11 05:08:44;;;;;;;5.30;1.08;;;10.00;99.90;;;9.28;88.04;101004.50;5033716;28;20118;-46
2021/04/11 05:11:22;;;;;;;5.10;1.40;;;9.90;99.90;;;9.35;87.13;100997.88;5051858;28;20033;-51
2021/04/11 05:14:14;;;;;;;3.15;1.08;;;9.90;99.90;;;9.37;87.68;101000.34;5067781;28;20162;-49
2021/04/11 05:17:01;;;;;;;6.40;1.70;;;9.90;99.90;;;9.40;87.34;101003.53;5051281;28;20390;-48
2021/04/11 05:19:39;;;;;;;;;;;9.90;99.90;;;9.37;87.96;101001.16;5048990;28;20041;-48
2021/04/11 05:22:25;;;;;;;2.70;1.38;;;9.90;99.90;;;9.33;87.64;101007.56;5030968;28;19924;-48
2021/04/11 05:25:18;;;;;;;4.95;1.20;;;9.90;99.90;;;9.33;87.69;101002.38;5050767;28;20048;-47
2021/04/11 05:28:30;;;;;;;5.03;1.25;;;9.90;99.90;;;9.29;87.70;101006.97;5068400;28;20032;-48
2021/04/11 05:31:31;;;;;;;3.95;1.80;;;9.90;99.90;;;9.26;88.46;101001.19;5045249;28;20052;-53
2021/04/11 05:33:59;;;;;;;3.55;1.20;;;9.90;99.90;;;9.21;87.29;101001.56;5023350;28;20049;-49
2021/04/11 05:36:50;;;;;;;8.55;1.85;;;9.80;99.90;;;9.24;88.10;101006.53;5050666;28;20032;-46
2021/04/11 05:39:49;;;;;;;6.15;2.53;;;9.80;99.90;;;9.22;87.27;101008.41;5044575;28;20098;-48
2021/04/11 05:42:28;;;;;;;4.10;1.48;;;9.80;99.90;;;9.23;87.10;101009.25;5065879;28;20242;-46
2021/04/11 05:45:18;;;;;;;3.35;2.22;;;9.80;99.90;;;9.30;87.18;101008.63;5067113;28;20473;-47
2021/04/11 05:47:55;;;;;;;3.70;1.50;;;9.80;99.90;;;9.37;86.95;101008.97;5050128;28;20570;-50
2021/04/11 05:50:34;;;;;;;6.57;2.78;;;9.90;99.90;;;9.37;86.47;101008.97;5063577;28;20085;-46
2021/04/11 05:53:17;;;;;;;4.07;2.03;;;9.90;99.90;;;9.41;86.68;101014.75;5033736;28;20048;-49
2021/04/11 05:55:52;;;;;;;6.57;2.58;;;10.00;99.90;;;9.40;86.46;101011.31;5050541;28;20146;-50
2021/04/11 05:58:23;;;;;;;7.03;2.50;;;10.00;99.90;;;9.45;86.12;101006.56;5050828;28;20073;-52
2021/04/11 06:01:03;;;;;;;5.60;2.00;;;10.00;99.90;;;9.51;86.05;101019.06;5048600;28;20348;-52
2021/04/11 06:03:33;;;;;;;3.08;2.13;;;10.00;99.90;;;9.55;86.44;101020.47;5045451;28;20353;-49
2021/04/11 06:06:11;;;;;;;5.47;1.95;;;10.10;99.90;;;9.55;86.64;101022.25;5050247;28;20043;-47
2021/04/11 06:09:05;;;;;;;4.63;2.15;;;10.10;99.90;;;9.55;86.63;101023.06;5065489;28;20032;-46
2021/04/11 06:12:04;;;;;;;4.70;3.17;;;10.10;99.90;;;9.56;87.06;101016.91;5049006;28;20054;-51
2021/04/11 06:14:55;;;;;;;9.30;3.92;;;10.20;99.90;;;9.53;86.78;101024.97;5050725;28;20074;-43
2021/04/11 06:17:21;;;;;;;6.30;1.98;;;10.10;99.90;;;9.53;86.33;101016.34;5063761;28;20029;-49
2021/04/11 06:19:48;;;;;;;7.70;2.08;;;10.10;99.90;;;9.55;85.26;101024.84;5053083;28;20090;-47
2021/04/11 06:22:24;;;;;;;9.75;2.20;;;10.10;99.90;;;9.51;85.43;101021.66;5030607;28;20072;-49
2021/04/11 06:25:02;;;;;;;3.17;1.63;;;10.10;99.90;;;9.55;85.21;101027.44;5047576;28;20140;-51
2021/04/11 06:28:12;;;;;;;4.95;2.20;;;10.10;99.90;;;9.61;85.50;101032.16;5047734;28;20044;-50
2021/04/11 06:30:51;;;;;;;5.45;2.65;;;10.20;99.90;;;9.64;85.19;101037.94;5047833;28;20041;-53
2021/04/11 06:33:29;;;;;;;6.80;2.30;;;10.20;99.90;;;9.72;85.56;101045.13;5043404;28;20056;-46
2021/04/11 06:36:02;;;;;;;5.70;2.40;;;10.30;99.90;;;9.74;85.76;101038.03;5050935;28;20377;-46
2021/04/11 06:38:45;;;;;;;5.38;2.05;;;10.30;99.90;;;9.76;85.94;101045.69;5035605;28;20036;-46
2021/04/11 06:41:51;;;;;;;12.25;2.70;;;10.30;99.90;;;9.73;85.92;101045.94;5047465;28;20025;-50
2021/04/11 06:44:45;;;;;;;4.47;2.38;;;10.30;99.90;;;9.66;86.30;101040.41;5067736;28;20040;-53
2021/04/11 06:47:54;;;;;;;5.30;2.17;;;10.30;99.90;;;9.68;86.64;101048.94;5070600;28;20131;-47
2021/04/11 06:50:41;;;;;;;6.45;2.20;;;10.20;99.90;;;9.62;86.60;101044.22;5071107;28;20113;-46
2021/04/11 06:53:24;;;;;;;4.43;1.55;;;10.20;99.90;;;9.62;86.38;101049.41;5066523;28;20051;-46
2021/04/11 06:55:59;;;;;;;4.30;1.20;;;10.20;99.90;;;9.56;86.19;101044.72;5067345;28;20139;-46
2021/04/11 06:58:48;;;;;;;3.53;1.42;;;10.20;99.90;;;9.56;86.24;101048.13;5071245;28;20033;-51
2021/04/11 07:01:22;;;;;;;3.17;0.90;;;10.20;99.90;;;9.58;86.21;101051.44;5066665;28;20129;-50
2021/04/11 07:04:36;;;;;;;3.00;1.00;;;10.20;99.90;;;9.61;85.70;101046.00;5069531;28;20051;-47
2021/04/11 07:07:34;;;;;;;7.45;1.20;;;10.20;99.90;;;9.65;85.37;101047.41;5036715;28;20053;-48
2021/04/11 07:10:34;;;;;;;5.10;0.80;;;10.20;99.90;;;9.65;85.38;101050.00;5066795;28;20047;-52
2021/04/11 07:13:36;;;;;;;5.22;1.52;;;10.20;99.90;;;9.60;85.79;101046.13;5070845;28;20040;-48
2021/04/11 07:16:53;;;;;;;4.68;1.55;;;10.20;99.90;;;9.59;85.59;101040.09;5066179;28;20080;-50
2021/04/11 07:19:36;;;;;;;2.75;1.10;;;10.10;99.90;;;9.51;86.04;101037.28;5052031;28;20121;-50
2021/04/11 07:22:48;;;;;;;3.28;1.10;;;10.10;99.90;;;9.44;87.05;101041.34;5053522;28;20543;-48
2021/04/11 07:25:28;;;;;;;5.93;2.13;;;10.00;99.90;;;9.47;85.96;101046.28;5069806;28;20053;-46
2021/04/11 07:27:59;;;;;;;3.25;1.77;;;10.00;99.90;;;9.53;85.56;101045.78;5069824;28;20203;-52
2021/04/11 07:30:42;;;;;;;5.65;1.58;;;10.00;99.90;;;9.56;85.56;101055.94;5068001;28;20082;-47
2021/04/11 07:33:48;;;;;;;4.93;1.85;;;10.10;99.90;;;9.57;85.81;101048.97;5034038;28;20029;-46
2021/04/11 07:36:48;;;;;;;6.70;1.83;;;10.10;99.90;;;9.58;85.62;101053.22;5055552;28;21303;-50
2021/04/11 07:39:46;;;;;;;4.88;1.85;;;10.10;99.90;;;9.58;85.93;101051.44;5042137;28;20048;-47
2021/04/11 07:42:40;;;;;;;4.70;2.00;;;10.10;99.90;;;9.62;85.68;101042.44;5069471;28;20052;-48
2021/04/11 07:45:43;;;;;;;4.80;1.42;;;10.10;99.90;;;9.74;85.64;101047.59;5065575;28;20064;-48
2021/04/11 07:48:18;;;;;;;3.90;2.20;;;10.20;99.90;;;9.82;84.56;101053.00;5070517;28;20048;-50
2021/04/11 07:50:56;;;;;;;5.18;1.35;;;10.30;99.90;;;9.90;84.24;101053.22;5068902;28;20159;-53
2021/04/11 07:54:05;;;;;;;5.45;2.35;;;10.40;99.90;;;10.01;84.50;101050.53;5070028;28;20098;-51
2021/04/11 07:57:16;;;;;;;3.85;1.10;;;10.40;99.90;;;10.11;83.53;101054.03;5068899;28;20051;-49
2021/04/11 08:00:18;;;;;;;3.08;1.23;;;10.60;99.90;;;10.23;82.47;101054.84;5037257;28;20500;-52
2021/04/11 08:03:09;;;;;;;4.25;1.30;;;10.60;99.90;;;10.29;82.14;101065.56;5046747;28;20083;-50
2021/04/11 08:05:55;;;;;;;3.83;1.30;;;10.70;99.90;;;10.38;81.99;101065.75;5068938;28;20059;-51
2021/04/11 08:08:45;;;;;;;3.35;1.42;;;10.80;99.90;;;10.44;82.13;101060.00;5069956;28;20071;-48
2021/04/11 08:12:02;;;;;;;5.65;2.25;;;10.90;99.90;;;10.46;83.17;101060.69;5068162;28;20052;-50
2021/04/11 08:14:56;;;;;;;7.10;2.78;;;11.00;99.90;;;10.65;82.13;101060.81;5066048;28;20048;-50
2021/04/11 08:17:33;;;;;;;7.05;3.58;;;11.10;99.90;;;10.71;81.38;101060.28;5069816;28;20110;-49
2021/04/11 08:20:41;;;;;;;4.65;2.70;;;11.30;99.90;;;10.78;80.38;101066.63;5066332;28;20053;-47
2021/04/11 08:23:45;;;;;;;;;;;11.30;99.90;;;10.80;79.83;101075.13;5055926;28;20120;-50
2021/04/11 08:26:34;;;;;;;4.80;1.75;;;11.30;99.90;;;10.82;80.11;101062.81;5052324;28;19973;-44
2021/04/11 08:29:26;;;;;;;5.88;2.60;;;11.40;99.90;;;10.90;79.71;101070.75;5048701;28;20048;-52
2021/04/11 08:32:13;;;;;;;5.63;1.83;;;11.40;99.90;;;10.88;79.18;101057.03;5050317;28;20036;-48
2021/04/11 08:35:00;;;;;;;4.88;1.95;;;11.40;99.90;;;10.84;78.59;101066.09;5065307;28;20065;-45
2021/04/11 08:37:49;;;;;;;4.55;2.05;;;11.40;99.90;;;10.69;79.14;101067.41;5069225;28;20370;-51
2021/04/11 08:40:38;;;;;;;4.90;1.75;;;11.30;99.90;;;10.46;79.32;101065.91;5060004;28;20395;-52
2021/04/11 08:43:52;;;;;;;4.70;1.63;;;11.20;99.90;;;10.30;79.92;101062.00;5032631;28;20048;-50
2021/04/11 08:47:25;;;;;;;6.38;1.60;;;11.00;99.90;;;10.13;80.34;101067.75;5036061;28;20127;-50
2021/04/11 08:50:30;;;;;;;3.35;1.10;;;10.80;99.90;;;10.07;80.91;101060.44;5040304;28;20129;-46
2021/04/11 08:53:17;;;;;;;2.75;1.27;;;10.70;99.90;;;10.13;81.28;101067.75;5033347;28;20134;-49
2021/04/11 08:56:18;;;;;;;3.83;1.05;;;10.70;99.90;;;10.15;80.46;101068.44;5048714;28;20044;-52
2021/04/11 08:59:12;;;;;;;2.22;1.10;;;10.70;99.90;;;10.16;80.56;101064.91;5063701;28;20044;-50
2021/04/11 09:02:05;;;;;;;3.75;1.48;;;10.70;99.90;;;10.15;80.85;101071.06;5065946;28;20496;-52
2021/04/11 09:05:01;;;;;;;1.90;1.00;;;10.70;99.90;;;10.18;81.02;101060.38;5060316;28;20048;-48
2021/04/11 09:07:37;;;;;;;;;;;10.70;99.90;;;10.21;81.35;101067.16;5065488;28;20434;-48
2021/04/11 09:10:06;;;;;;;5.13;0.93;;;10.80;99.90;;;10.21;80.05;101064.53;5033205;28;19935;-48
2021/04/11 09:12:44;;;;;;;4.32;0.75;;;10.80;99.90;;;10.23;79.78;101066.06;5051505;28;20040;-52
2021/04/11 09:15:45;;;;;;;2.33;0.70;;;10.80;99.90;;;10.28;80.21;101066.53;5056224;28;20055;-53
2021/04/11 09:18:37;;;;;;;4.63;1.15;;;10.80;99.90;;;10.46;80.36;101071.13;5065770;28;20036;-49
2021/04/11 09:21:41;;;;;;;8.52;2.50;;;11.00;99.90;;;10.56;80.70;101067.63;5052520;28;20035;-52
2021/04/11 09:24:59;;;;;;;4.50;1.60;;;11.10;99.90;;;10.66;79.66;101072.88;5068838;28;20056;-49
2021/04/11 09:27:58;;;;;;;4.13;1.13;;;11.20;99.90;;;10.92;78.64;101078.47;5050569;28;20139;-49
2021/04/11 09:31:00;;;;;;;2.85;1.30;;;11.40;99.90;;;10.68;79.39;101076.19;5051050;28;20174;-48
2021/04/11 09:34:08;;;;;;;4.80;1.83;;;11.30;99.90;;;10.51;80.49;101080.19;5068172;28;20052;-48
2021/04/11 09:37:01;;;;;;;3.55;0.90;;;11.20;99.90;;;10.39;81.20;101081.25;5052442;28;20033;-50
2021/04/11 09:40:10;;;;;;;4.18;1.63;;;11.00;99.90;;;10.34;81.21;101069.56;5068033;28;20040;-52
2021/04/11 09:42:57;;;;;;;5.22;0.98;;;10.90;99.90;;;10.30;81.22;101072.44;5067568;28;20053;-47
2021/04/11 09:46:28;;;;;;;3.00;1.00;;;10.90;99.90;;;10.34;81.33;101066.97;5067810;28;20044;-51
2021/04/11 09:49:15;;;;;;;4.65;1.77;;;10.90;99.90;;;10.26;81.12;101071.03;5005200;28;20513;-49
2021/04/11 09:52:25;;;;;;;;;;;10.80;99.90;;;10.18;82.79;101078.63;4990689;28;20041;-51
2021/04/11 09:55:11;;;;;;;5.07;1.27;;;10.80;99.90;;;9.99;82.26;101071.47;4926989;29;19922;-44
2021/04/11 09:58:19;;;;;;;4.32;1.35;;;10.70;99.90;;;9.99;82.90;101081.06;4926707;29;20393;-50
2021/04/11 10:01:03;;;;;;;4.00;1.35;;;10.60;99.90;;;10.11;82.33;101079.25;4927896;29;20051;-47
2021/04/11 10:03:59;;;;;;;4.35;1.73;;;10.70;99.90;;;10.01;82.58;101076.56;4927960;29;20052;-45
2021/04/11 10:06:52;;;;;;;3.97;1.15;;;10.70;99.90;;;9.81;82.82;101077.38;4927918;29;20058;-49
2021/04/11 10:09:46;;;;;;;3.35;1.13;;;10.50;99.90;;;9.80;82.90;101078.34;4927793;29;20048;-47
2021/04/11 10:12:48;;;;;;;4.93;1.73;;;10.40;99.90;;;9.87;82.90;101077.72;4927615;29;20047;-45
2021/04/11 10:15:52;;;;;;;4.10;1.58;;;10.50;99.90;;;9.87;82.94;101074.28;4927629;29;20055;-45
2021/04/11 10:18:53;;;;;;;1.80;1.02;;;10.50;99.90;;;9.68;83.73;101061.94;4927823;29;20043;-51
2021/04/11 10:21:47;;;;;;;2.30;1.33;;;10.30;99.90;;;9.62;84.79;101067.63;4946570;29;20281;-50
2021/04/11 10:25:10;;;;;;;4.10;2.35;;;10.20;99.90;;;9.51;85.18;101068.47;4946650;29;20105;-50
2021/04/11 10:27:50;;;;;;;4.88;1.20;;;10.10;99.90;;;9.61;84.60;101064.19;4948544;28;20035;-47
2021/04/11 10:30:17;;;;;;;2.90;0.77;;;10.20;99.90;;;9.67;83.64;101062.06;5047291;28;20507;-51
2021/04/11 10:33:02;;;;;;;3.90;0.93;;;10.20;99.90;;;9.61;83.86;101059.00;5029446;28;20025;-43
2021/04/11 10:35:57;;;;;;;3.17;0.70;;;10.20;99.90;;;9.64;83.98;101058.75;5029102;28;20504;-50
2021/04/11 10:38:52;;;;;;;5.45;0.98;;;10.20;99.90;;;9.54;85.00;101060.44;5035336;28;20093;-49
2021/04/11 10:41:30;;;;;;;5.60;1.40;;;10.20;99.90;;;9.67;84.29;101056.84;5037257;28;20085;-47
2021/04/11 10:44:15;;;;;;;10.25;1.58;;;10.30;99.90;;;9.72;84.23;101060.75;5048693;28;20143;-48
2021/04/11 10:47:42;;;;;;;5.40;1.83;;;10.30;99.90;;;9.79;84.41;101054.09;5014354;28;20043;-47
2021/04/11 10:50:37;;;;;;;2.53;1.33;;;10.40;99.90;;;9.88;84.95;101052.50;5034741;28;20052;-46
2021/04/11 10:53:40;;;;;;;4.82;1.63;;;10.40;99.90;;;10.02;84.49;101052.19;5028888;28;20056;-45
2021/04/11 10:56:43;;;;;;;7.18;2.40;;;10.60;99.90;;;10.05;84.49;101051.09;5047808;28;20407;-52
2021/04/11 10:59:28;;;;;;;6.00;2.17;;;10.60;99.90;;;10.08;83.88;101051.69;5048958;28;20059;-51
2021/04/11 11:02:47;;;;;;;4.32;1.50;;;10.70;99.90;;;10.12;84.81;101047.03;5048478;28;20064;-48
2021/04/11 11:05:53;;;;;;;4.38;1.67;;;10.70;99.90;;;9.93;85.81;101042.53;5049495;28;20037;-48
2021/04/11 11:09:02;;;;;;;2.33;1.20;;;10.70;99.90;;;9.89;86.04;101048.97;5063211;28;20072;-49
2021/04/11 11:11:55;;;;;;;5.15;1.38;;;10.60;99.90;;;9.77;86.81;101039.56;5064570;28;20045;-50
2021/04/11 11:14:45;;;;;;;5.53;1.88;;;10.40;99.90;;;9.89;86.91;101041.16;5046380;28;20040;-48
2021/04/11 11:17:52;;;;;;;5.03;1.75;;;10.50;99.90;;;9.92;86.96;101035.69;5063901;28;20045;-49
2021/04/11 11:20:31;;;;;;;7.88;2.60;;;10.50;99.90;;;9.96;85.97;101039.66;5060625;28;20037;-50
2021/04/11 11:23:31;;;;;;;7.03;2.00;;;10.60;99.90;;;9.93;86.87;101034.72;5064439;28;20352;-51
2021/04/11 11:26:18;;;;;;;3.55;2.13;;;10.50;99.90;;;10.05;85.86;101028.50;5046976;28;20036;-46
2021/04/11 11:28:57;;;;;;;3.63;2.17;;;10.50;99.90;;;10.19;85.78;101027.34;5066922;28;20056;-47